Flight Track Log - Related Links

Times and Time Zones

All times are in EDT time to prevent confusion due to time zone crossing. See the QLK106D flight status page for this flight to view local times or setup timezone preferences in your user account.

Time Position Orientation Groundspeed Altitude Reporting Facility
EDT Latitude Longitude Course Direction KTS MPH feet Rate Location/Type
Fri 06:57:47 PM -33.9170 151.1876 North 155 178 1,800  Level Aus ATC (RADAR)
Fri 06:58:32 PM -33.8718 151.1896 North 218 251 2,900 1,725 Climbing Aus ATC (RADAR)
Fri 06:59:07 PM -33.8345 151.2005 14° North 232 267 4,100 2,475 Climbing Aus ATC (RADAR)
Fri 06:59:52 PM -33.7911 151.2298 29° Northeast 240 276 6,200 2,960 Climbing Aus ATC (RADAR)
Fri 07:00:22 PM -33.7636 151.2470 27° Northeast 214 246 7,800 2,753 Climbing Aus ATC (RADAR)
Fri 07:01:17 PM -33.7154 151.2774 28° Northeast 213 245 10,100 2,286 Climbing Aus ATC (RADAR)
Fri 07:02:07 PM -33.6684 151.3053 26° Northeast 225 259 11,800 2,114 Climbing Aus ATC (RADAR)
Fri 07:03:02 PM -33.6165 151.3366 27° Northeast 233 268 13,800 2,092 Climbing Aus ATC (RADAR)
Fri 07:03:56 PM -33.5631 151.3692 27° Northeast 230 265 15,600 2,043 Climbing Aus ATC (RADAR)
Fri 07:04:36 PM -33.5252 151.3923 27° Northeast 228 262 17,000 1,840 Climbing Aus ATC (RADAR)
Fri 07:05:11 PM -33.4916 151.4130 27° Northeast 232 267 17,900 1,714 Climbing Aus ATC (RADAR)
Fri 07:05:46 PM -33.4569 151.4334 26° Northeast 234 269 19,000 1,938 Climbing Aus ATC (RADAR)
Fri 07:06:16 PM -33.4262 151.4526 28° Northeast 244 281 20,000 1,754 Climbing Aus ATC (RADAR)
Fri 07:06:51 PM -33.3919 151.4796 33° Northeast 257 296 20,900 771 Climbing Aus ATC (RADAR)
Fri 07:07:26 PM -33.3555 151.5069 32° Northeast 263 303 20,900  Level Aus ATC (RADAR)
Fri 07:08:06 PM -33.3053 151.5277 19° North 286 329 20,900 -379 Level Aus ATC (RADAR)
Fri 07:09:01 PM -33.2391 151.5664 26° Northeast 286 329 20,300 -780 Descending Aus ATC (RADAR)
Fri 07:09:46 PM -33.1845 151.5998 27° Northeast 293 337 19,600 -880 Descending Aus ATC (RADAR)
Fri 07:10:16 PM -33.1492 151.6210 27° Northeast 292 336 19,200 -646 Descending Aus ATC (RADAR)
Fri 07:10:51 PM -33.1062 151.6468 27° Northeast 293 337 18,900 -600 Descending Aus ATC (RADAR)
Fri 07:11:26 PM -33.0653 151.6724 28° Northeast 282 325 18,500 -857 Descending Aus ATC (RADAR)
Fri 07:12:01 PM -33.0247 151.6966 27° Northeast 267 307 17,900 -1,029 Descending Aus ATC (RADAR)
Fri 07:12:36 PM -32.9864 151.7193 26° Northeast 262 302 17,300 -1,050 Descending Aus ATC (RADAR)
Fri 07:13:21 PM -32.9377 151.7479 26° Northeast 260 299 16,500 -1,011 Descending Aus ATC (RADAR)
Fri 07:14:11 PM -32.8841 151.7836 29° Northeast 267 307 15,700 -400 Descending Aus ATC (RADAR)
Fri 07:14:51 PM -32.8424 151.8122 30° Northeast 260 299 15,900 120 Climbing Aus ATC (RADAR)
Fri 07:15:51 PM -32.7834 151.8607 35° Northeast 259 298 15,900  Level Aus ATC (RADAR)
Fri 07:16:55 PM -32.7151 151.9133 33° Northeast 265 305 15,900  Level Aus ATC (RADAR)
Fri 07:17:25 PM -32.6842 151.9370 33° Northeast 263 303 15,900  Level Aus ATC (RADAR)
Fri 07:18:50 PM -32.6087 152.0305 46° Northeast 282 325 15,900  Level Aus ATC (RADAR)
Fri 07:19:40 PM -32.5653 152.0890 49° Northeast 284 327 15,900  Level Aus ATC (RADAR)
Fri 07:20:30 PM -32.5229 152.1451 48° Northeast 276 318 15,900  Level Aus ATC (RADAR)
Fri 07:21:00 PM -32.4967 152.1797 48° Northeast 277 319 15,900  Level Aus ATC (RADAR)
Fri 07:21:45 PM -32.4550 152.2329 47° Northeast 285 328 15,900  Level Aus ATC (RADAR)
Fri 07:22:45 PM -32.3933 152.2863 36° Northeast 276 318 15,900  Level Aus ATC (RADAR)
Fri 07:23:25 PM -32.3521 152.3179 33° Northeast 270 311 15,900 80 Level Aus ATC (RADAR)
Fri 07:24:00 PM -32.3135 152.3478 33° Northeast 274 315 16,000 86 Climbing Aus ATC (RADAR)
Fri 07:24:35 PM -32.2746 152.3728 29° Northeast 272 313 16,000  Level Aus ATC (RADAR)
Fri 07:25:15 PM -32.2287 152.3981 25° Northeast 272 313 16,000  Level Aus ATC (RADAR)
Fri 07:25:50 PM -32.1885 152.4212 26° Northeast 276 318 16,000  Level Aus ATC (RADAR)
Fri 07:26:29 PM -32.1422 152.4480 26° Northeast 277 319 16,000  Level Aus ATC (RADAR)
Fri 07:27:04 PM -32.1016 152.4713 26° Northeast 277 319 16,000  Level Aus ATC (RADAR)
Fri 07:27:39 PM -32.0614 152.4950 27° Northeast 276 318 16,000  Level Aus ATC (RADAR)
Fri 07:28:34 PM -32.0006 152.5314 27° Northeast 272 313 16,000  Level Aus ATC (RADAR)
Fri 07:29:34 PM -31.9325 152.5736 28° Northeast 271 312 16,000  Level Aus ATC (RADAR)
Fri 07:30:29 PM -31.8718 152.6134 29° Northeast 273 314 16,000  Level Aus ATC (RADAR)
Fri 07:31:09 PM -31.8264 152.6432 29° Northeast 286 329 16,000  Level Aus ATC (RADAR)
Fri 07:31:54 PM -31.7681 152.6794 28° Northeast 314 361 16,000  Level Aus ATC (RADAR)
Fri 07:32:29 PM -31.7198 152.7064 25° Northeast 327 376 16,000  Level Aus ATC (RADAR)
Fri 07:33:14 PM -31.6551 152.7414 25° Northeast 338 389 16,000  Level Aus ATC (RADAR)
Fri 07:33:44 PM -31.6117 152.7646 24° Northeast 339 390 16,000  Level Aus ATC (RADAR)
Fri 07:34:19 PM -31.5620 152.7907 24° Northeast 333 383 16,000  Level Aus ATC (RADAR)
Fri 07:34:54 PM -31.5093 152.8162 22° Northeast 339 390 16,000  Level Aus ATC (RADAR)
Fri 07:35:29 PM -31.4632 152.8464 29° Northeast 335 386 16,000  Level Aus ATC (RADAR)
Fri 07:35:59 PM -31.4203 152.8703 25° Northeast 326 375 16,000  Level Aus ATC (RADAR)
Fri 07:36:34 PM -31.3689 152.8707 360° North 321 369 16,000  Level Aus ATC (RADAR)
Fri 07:37:09 PM -31.3190 152.8705 360° North 315 362 16,000  Level Aus ATC (RADAR)
Fri 07:37:39 PM -31.2775 152.8708 360° North 304 350 16,000  Level Aus ATC (RADAR)
Fri 07:38:33 PM -31.2000 152.8728 North 297 342 16,000  Level Aus ATC (RADAR)
Fri 07:39:29 PM -31.1253 152.8745 North 298 343 16,000 -375 Level Aus ATC (RADAR)
Fri 07:40:09 PM -31.0706 152.8763 North 296 341 15,400 -1,280 Descending Aus ATC (RADAR)
Fri 07:40:44 PM -31.0205 152.8778 North 301 346 14,400 -1,703 Descending Aus ATC (RADAR)
Fri 07:41:23 PM -30.9643 152.8793 North 297 342 13,300 -1,130 Descending Aus ATC (RADAR)
Fri 07:41:53 PM -30.9250 152.8774 358° North 287 330 13,100 -1,000 Descending Aus ATC (RADAR)
Fri 07:42:23 PM -30.8868 152.8780 North 280 322 12,300 -1,385 Descending Aus ATC (RADAR)
Fri 07:42:58 PM -30.8389 152.8804 North 289 333 11,600 -1,500 Descending Aus ATC (RADAR)
Fri 07:43:43 PM -30.7769 152.8849 North 293 337 10,300 -1,680 Descending Aus ATC (RADAR)
Fri 07:44:38 PM -30.7061 152.8849 360° North 273 314 8,800 -1,600 Descending Aus ATC (RADAR)
Fri 07:45:28 PM -30.6486 152.8859 North 250 288 7,500 -1,482 Descending Aus ATC (RADAR)
Fri 07:46:03 PM -30.6110 152.8882 North 238 274 6,700 -1,326 Descending Aus ATC (RADAR)
Fri 07:47:03 PM -30.5491 152.8912 North 244 281 5,400 -1,300 Descending Aus ATC (RADAR)
Fri 07:49:39 PM -30.3750 153.0603 42° Northeast -2,077 Descending Aus ATC (Calculated)
Fri 07:50:18 PM -30.3478 153.0883 42° Northeast  Level Aus ATC (Calculated)
Fri 07:52:00 PM -30.3206 153.1164 35° Northeast  Level Estimated
Fri 07:53:00 PM -30.3206 153.1164 North  Level Estimated

Login

Don't have an account? Register now (free) for customized features, flight alerts, and more!